Time;durP1;ratioP1;P1;durP2;ratioP2;P2;SDS_P1;SDS_P2;PMS_P1;PMS_P2;Temp;Humidity;BMP_temperature;BMP_pressure;BME280_temperature;BME280_humidity;BME280_pressure;Samples;Min_cycle;Max_cycle;Signal;HPM_P1;HPM_P2
2023/06/30 00:01:30;;;;;;;5.13;3.00;;;20.40;98.80;;;;;;4986024;28;20475;-74
2023/06/30 00:03:56;;;;;;;9.10;3.83;;;20.50;98.80;;;;;;4982584;28;20026;-73
2023/06/30 00:06:22;;;;;;;4.45;2.95;;;20.50;98.80;;;;;;4982979;28;20026;-74
2023/06/30 00:08:48;;;;;;;7.65;3.33;;;20.60;98.70;;;;;;4985219;28;20026;-74
2023/06/30 00:11:15;;;;;;;7.22;3.13;;;20.60;98.60;;;;;;4982469;28;20548;-74
2023/06/30 00:13:41;;;;;;;7.03;3.08;;;20.70;98.60;;;;;;4984990;28;20028;-74
2023/06/30 00:16:06;;;;;;;7.60;3.40;;;20.60;98.60;;;;;;4984209;28;20109;-74
2023/06/30 00:18:32;;;;;;;7.18;3.00;;;20.70;98.60;;;;;;4982769;28;20035;-74
2023/06/30 00:20:58;;;;;;;5.20;2.75;;;20.70;98.60;;;;;;4986278;28;20041;-75
2023/06/30 00:23:27;;;;;;;4.53;2.75;;;20.60;98.70;;;;;;4986175;28;20050;-74
2023/06/30 00:25:53;;;;;;;7.28;3.15;;;20.60;98.80;;;;;;4985829;28;20038;-74
2023/06/30 00:28:19;;;;;;;5.50;3.30;;;20.60;98.80;;;;;;4986295;28;20065;-74
2023/06/30 00:30:44;;;;;;;6.95;2.88;;;20.50;98.90;;;;;;4985348;28;20599;-74
2023/06/30 00:33:11;;;;;;;7.93;3.03;;;20.50;99.00;;;;;;4985600;28;20097;-73
2023/06/30 00:35:37;;;;;;;5.85;3.20;;;20.40;99.10;;;;;;4988069;28;20503;-73
2023/06/30 00:38:03;;;;;;;9.35;4.13;;;20.40;99.40;;;;;;4985363;28;20034;-74
2023/06/30 00:40:29;;;;;;;5.07;2.60;;;20.30;99.30;;;;;;4984251;28;20037;-74
2023/06/30 00:42:55;;;;;;;6.88;3.30;;;20.30;99.40;;;;;;4987052;28;20034;-74
2023/06/30 00:45:20;;;;;;;8.18;3.70;;;20.20;99.50;;;;;;4987221;28;20126;-74
2023/06/30 00:47:46;;;;;;;8.82;3.92;;;20.20;99.60;;;;;;4982908;28;20033;-73
2023/06/30 00:50:12;;;;;;;5.82;2.78;;;20.10;99.60;;;;;;4982732;28;20177;-74
2023/06/30 00:52:39;;;;;;;6.93;3.38;;;20.10;99.70;;;;;;4986884;28;20042;-74
2023/06/30 00:55:07;;;;;;;5.80;2.95;;;20.00;99.80;;;;;;4985397;28;20093;-74
2023/06/30 00:57:33;;;;;;;7.78;2.90;;;20.10;99.90;;;;;;4984824;28;20034;-73
2023/06/30 01:00:05;;;;;;;8.18;2.85;;;20.10;99.80;;;;;;4983187;28;20034;-75
2023/06/30 01:02:33;;;;;;;6.00;2.75;;;20.20;99.90;;;;;;4985716;28;20118;-76
2023/06/30 01:05:04;;;;;;;6.30;2.92;;;20.20;99.70;;;;;;4983588;28;20484;-74
2023/06/30 01:07:42;;;;;;;6.40;3.72;;;20.20;99.80;;;;;;4985690;28;20030;-73
2023/06/30 01:10:17;;;;;;;9.70;3.25;;;20.20;99.80;;;;;;4985621;28;20038;-74
2023/06/30 01:12:43;;;;;;;5.20;2.85;;;20.10;99.90;;;;;;4985388;28;20500;-73
2023/06/30 01:15:10;;;;;;;6.18;2.80;;;20.00;99.90;;;;;;4981073;28;20031;-73
2023/06/30 01:17:44;;;;;;;6.68;3.33;;;19.90;99.90;;;;;;4985272;28;20029;-73
2023/06/30 01:20:11;;;;;;;;;;;19.90;99.90;;;;;;4983163;28;20023;-74
2023/06/30 01:22:54;;;;;;;7.88;3.05;;;19.90;99.90;;;;;;4984568;28;19936;-73
2023/06/30 01:25:26;;;;;;;5.85;3.38;;;19.80;99.90;;;;;;4983664;28;20061;-73
2023/06/30 01:27:54;;;;;;;6.78;3.30;;;19.90;99.90;;;;;;4978884;28;20049;-74
2023/06/30 01:30:20;;;;;;;8.40;2.80;;;20.00;99.90;;;;;;4985964;28;20117;-74
2023/06/30 01:32:46;;;;;;;6.60;2.83;;;19.80;99.90;;;;;;4985055;28;20441;-74
2023/06/30 01:35:12;;;;;;;6.63;3.22;;;19.80;99.90;;;;;;4980151;28;20030;-73
2023/06/30 01:37:38;;;;;;;5.63;3.20;;;19.90;99.90;;;;;;4984817;28;20037;-74
2023/06/30 01:40:05;;;;;;;5.45;3.42;;;19.70;99.90;;;;;;4984090;28;20476;-74
2023/06/30 01:42:32;;;;;;;7.28;3.10;;;19.90;99.90;;;;;;4981223;28;20030;-73
2023/06/30 01:44:58;;;;;;;5.60;3.03;;;19.90;99.90;;;;;;4985590;28;20076;-74
2023/06/30 01:47:24;;;;;;;9.32;3.40;;;19.90;99.90;;;;;;4982272;28;20031;-74
2023/06/30 01:49:50;;;;;;;6.65;2.97;;;20.00;99.90;;;;;;4980727;28;20034;-74
2023/06/30 01:52:17;;;;;;;8.18;2.80;;;19.80;99.90;;;;;;4985972;28;20046;-74
2023/06/30 01:54:43;;;;;;;6.25;3.47;;;19.80;99.90;;;;;;4985191;28;20379;-74
2023/06/30 01:57:10;;;;;;;6.22;3.35;;;19.90;99.90;;;;;;4981299;28;20465;-74
2023/06/30 01:59:36;;;;;;;7.15;4.03;;;20.00;99.90;;;;;;4983622;28;20041;-75
2023/06/30 02:02:01;;;;;;;4.72;3.05;;;20.10;99.90;;;;;;4985471;28;20022;-73
2023/06/30 02:04:27;;;;;;;5.90;3.00;;;20.10;99.90;;;;;;4983001;28;20026;-74
2023/06/30 02:06:52;;;;;;;5.80;2.90;;;20.00;99.90;;;;;;4984783;28;20034;-74
2023/06/30 02:09:18;;;;;;;4.15;2.83;;;20.00;99.90;;;;;;4978827;28;20069;-76
2023/06/30 02:11:44;;;;;;;5.03;3.40;;;20.00;99.90;;;;;;4982991;28;20041;-74
2023/06/30 02:14:09;;;;;;;5.85;3.40;;;19.90;99.90;;;;;;4983546;28;20763;-74
2023/06/30 02:16:35;;;;;;;5.50;4.00;;;19.80;99.90;;;;;;4984519;28;20034;-74
2023/06/30 02:19:01;;;;;;;6.57;3.40;;;19.70;99.90;;;;;;4980167;28;20038;-73
2023/06/30 02:21:26;;;;;;;7.22;2.92;;;19.70;99.90;;;;;;4985161;28;20069;-74
2023/06/30 02:23:52;;;;;;;7.40;3.17;;;19.80;99.90;;;;;;4984336;28;20542;-74
2023/06/30 02:26:18;;;;;;;7.57;3.88;;;19.70;99.90;;;;;;4984359;28;20535;-73
2023/06/30 02:28:43;;;;;;;5.13;3.20;;;19.70;99.90;;;;;;4982451;28;20507;-74
2023/06/30 02:31:09;;;;;;;6.22;3.42;;;19.70;99.90;;;;;;4981296;28;20436;-73
2023/06/30 02:33:35;;;;;;;6.18;3.53;;;19.80;99.90;;;;;;4982398;28;20100;-73
2023/06/30 02:36:03;;;;;;;8.82;4.20;;;19.80;99.90;;;;;;4983095;28;20045;-73
2023/06/30 02:38:31;;;;;;;5.32;3.42;;;19.80;99.90;;;;;;4982875;28;20457;-74
2023/06/30 02:40:57;;;;;;;6.90;3.20;;;19.90;99.90;;;;;;4983878;28;20494;-74
2023/06/30 02:43:23;;;;;;;6.82;3.63;;;19.90;99.90;;;;;;4982854;28;20030;-74
2023/06/30 02:45:48;;;;;;;6.55;3.00;;;19.90;99.90;;;;;;4983515;28;20085;-74
2023/06/30 02:48:14;;;;;;;6.00;3.10;;;19.90;99.90;;;;;;4983214;28;21134;-74
2023/06/30 02:50:40;;;;;;;6.65;2.92;;;19.90;99.90;;;;;;4982534;28;20530;-74
2023/06/30 02:53:06;;;;;;;7.43;3.05;;;20.00;99.90;;;;;;4980815;28;20034;-73
2023/06/30 02:55:36;;;;;;;6.25;3.30;;;20.10;99.90;;;;;;4984483;28;20022;-74
2023/06/30 02:58:02;;;;;;;6.03;3.53;;;20.10;99.90;;;;;;4984643;28;20029;-72
2023/06/30 03:00:28;;;;;;;8.43;3.53;;;20.10;99.90;;;;;;4982087;28;20039;-74
2023/06/30 03:02:53;;;;;;;9.93;3.72;;;20.10;99.90;;;;;;4979718;28;20113;-74
2023/06/30 03:05:19;;;;;;;5.82;3.35;;;20.20;99.90;;;;;;4977640;28;20084;-74
2023/06/30 03:07:45;;;;;;;5.20;2.90;;;20.30;99.90;;;;;;4979427;28;20133;-74
2023/06/30 03:10:12;;;;;;;5.43;3.60;;;20.30;99.90;;;;;;4977710;28;20130;-76
2023/06/30 03:12:37;;;;;;;7.40;3.38;;;20.20;99.90;;;;;;4974110;28;20046;-75
2023/06/30 03:15:04;;;;;;;5.78;3.75;;;20.20;99.90;;;;;;4978212;28;20054;-75
2023/06/30 03:17:30;;;;;;;8.82;3.25;;;20.00;99.90;;;;;;4975657;28;20038;-75
2023/06/30 03:19:56;;;;;;;6.75;3.35;;;19.90;99.90;;;;;;4976415;28;20468;-75
2023/06/30 03:22:22;;;;;;;4.85;3.22;;;19.90;99.90;;;;;;4973468;28;20058;-74
2023/06/30 03:24:48;;;;;;;7.32;3.78;;;20.00;99.90;;;;;;4978668;28;20070;-76
2023/06/30 03:27:14;;;;;;;8.45;2.90;;;20.00;99.90;;;;;;4977870;28;20060;-74
2023/06/30 03:29:39;;;;;;;9.82;3.42;;;19.90;99.90;;;;;;4981041;28;20418;-74
2023/06/30 03:32:05;;;;;;;7.75;3.35;;;19.90;99.90;;;;;;4973339;28;20039;-75
2023/06/30 03:34:31;;;;;;;7.45;3.20;;;20.00;99.90;;;;;;4978573;28;20038;-75
2023/06/30 03:36:57;;;;;;;4.70;3.15;;;20.00;99.90;;;;;;4979536;28;20427;-74
2023/06/30 03:39:22;;;;;;;8.75;3.83;;;20.10;99.90;;;;;;4976702;28;20035;-74
2023/06/30 03:41:48;;;;;;;6.65;2.90;;;20.10;99.90;;;;;;4978601;28;20033;-76
2023/06/30 03:44:14;;;;;;;5.13;3.03;;;20.20;99.90;;;;;;4978357;28;20034;-74
2023/06/30 03:46:40;;;;;;;5.75;3.20;;;20.30;99.90;;;;;;4977187;28;20153;-74
2023/06/30 03:49:06;;;;;;;5.55;3.30;;;20.30;99.90;;;;;;4979033;28;20078;-76
2023/06/30 03:51:32;;;;;;;7.45;3.65;;;20.40;99.90;;;;;;4975628;28;20294;-75
2023/06/30 03:53:57;;;;;;;6.93;3.47;;;20.40;99.90;;;;;;4975472;28;20713;-75
2023/06/30 03:56:23;;;;;;;6.80;3.65;;;20.40;99.90;;;;;;4978721;28;20038;-75
2023/06/30 03:58:49;;;;;;;7.95;3.47;;;20.50;99.90;;;;;;4975857;28;20026;-75
2023/06/30 04:01:14;;;;;;;7.13;2.90;;;20.40;99.90;;;;;;4975935;28;20034;-74
2023/06/30 04:03:40;;;;;;;6.30;3.53;;;20.20;99.90;;;;;;4976577;28;20742;-74
2023/06/30 04:06:06;;;;;;;5.53;3.50;;;20.10;99.90;;;;;;4976437;28;20023;-75
2023/06/30 04:08:32;;;;;;;5.70;3.33;;;20.10;99.90;;;;;;4973675;28;20066;-75
2023/06/30 04:10:57;;;;;;;5.40;3.25;;;20.20;99.90;;;;;;4977648;28;20049;-75
2023/06/30 04:13:23;;;;;;;5.65;3.40;;;20.20;99.90;;;;;;4978245;28;20038;-74
2023/06/30 04:15:49;;;;;;;6.13;3.65;;;20.20;99.90;;;;;;4977610;28;20026;-76
2023/06/30 04:18:14;;;;;;;8.15;3.38;;;20.40;99.90;;;;;;4976942;28;21009;-75
2023/06/30 04:20:40;;;;;;;6.45;3.50;;;20.40;99.90;;;;;;4977659;28;20041;-74
2023/06/30 04:23:06;;;;;;;6.80;2.97;;;20.50;99.90;;;;;;4974669;28;20101;-74
2023/06/30 04:25:31;;;;;;;6.80;4.32;;;20.60;99.90;;;;;;4977055;28;20078;-74
2023/06/30 04:27:57;;;;;;;5.57;3.40;;;20.70;99.90;;;;;;4977633;28;20073;-74
2023/06/30 04:30:23;;;;;;;6.22;3.40;;;20.60;99.90;;;;;;4976572;28;20360;-74
2023/06/30 04:32:48;;;;;;;10.43;3.55;;;20.70;99.90;;;;;;4976544;28;20026;-76
2023/06/30 04:35:15;;;;;;;7.05;3.75;;;20.70;99.90;;;;;;4976704;28;20076;-74
2023/06/30 04:37:40;;;;;;;6.53;4.10;;;20.70;99.90;;;;;;4978981;28;20037;-74
2023/06/30 04:40:10;;;;;;;8.18;4.10;;;20.40;99.90;;;;;;4980888;28;20034;-74
2023/06/30 04:42:37;;;;;;;6.43;3.92;;;20.30;99.90;;;;;;4980406;28;20049;-73
2023/06/30 04:45:02;;;;;;;6.18;3.75;;;20.20;99.90;;;;;;4979599;28;20088;-74
2023/06/30 04:47:28;;;;;;;7.15;3.95;;;20.20;99.90;;;;;;4980900;28;20030;-75
2023/06/30 04:49:54;;;;;;;6.65;4.05;;;20.30;99.90;;;;;;4980913;28;20042;-74
2023/06/30 04:52:20;;;;;;;6.30;3.90;;;20.20;99.90;;;;;;4977592;28;20030;-74
2023/06/30 04:54:46;;;;;;;6.28;4.15;;;20.20;99.90;;;;;;4979722;28;20354;-74
2023/06/30 04:57:12;;;;;;;6.22;3.80;;;20.20;99.90;;;;;;4981177;28;20068;-75
2023/06/30 04:59:38;;;;;;;10.75;4.70;;;19.90;99.90;;;;;;4980081;28;20030;-75
2023/06/30 05:02:04;;;;;;;6.55;3.70;;;19.80;99.90;;;;;;4981039;28;20026;-75
2023/06/30 05:04:30;;;;;;;7.32;3.85;;;19.60;99.90;;;;;;4979871;28;20496;-76
2023/06/30 05:06:56;;;;;;;10.70;4.75;;;19.30;99.90;;;;;;4978977;28;20121;-76
2023/06/30 05:09:25;;;;;;;5.88;3.60;;;19.50;99.90;;;;;;4980247;28;20377;-76
2023/06/30 05:11:51;;;;;;;6.18;3.97;;;19.70;99.90;;;;;;4980533;28;20034;-74
2023/06/30 05:14:16;;;;;;;10.98;4.88;;;19.70;99.90;;;;;;4978940;28;20546;-75
2023/06/30 05:16:42;;;;;;;6.20;4.10;;;19.90;99.90;;;;;;4978365;28;20058;-75
2023/06/30 05:19:08;;;;;;;6.15;3.85;;;20.00;99.90;;;;;;4979353;28;20483;-75
2023/06/30 05:21:34;;;;;;;6.00;3.85;;;20.20;99.90;;;;;;4980645;28;20452;-75
2023/06/30 05:23:59;;;;;;;7.05;3.63;;;20.30;99.90;;;;;;4979867;28;20112;-74
2023/06/30 05:26:25;;;;;;;8.13;3.78;;;20.30;99.90;;;;;;4980490;28;20081;-76
2023/06/30 05:28:50;;;;;;;7.40;4.25;;;20.20;99.90;;;;;;4979988;28;20113;-77
2023/06/30 05:31:16;;;;;;;6.53;4.32;;;20.40;99.90;;;;;;4979064;28;20038;-75
2023/06/30 05:33:42;;;;;;;6.28;4.00;;;20.60;99.90;;;;;;4979921;28;20027;-75
2023/06/30 05:36:07;;;;;;;8.23;4.05;;;20.80;99.90;;;;;;4980543;28;20415;-75
2023/06/30 05:38:33;;;;;;;7.00;4.15;;;21.00;99.90;;;;;;4979496;28;21032;-76
2023/06/30 05:40:59;;;;;;;10.02;3.78;;;21.10;99.90;;;;;;4978903;28;20643;-75
2023/06/30 05:43:25;;;;;;;6.00;3.83;;;21.10;99.90;;;;;;4981164;28;20117;-74
2023/06/30 05:45:51;;;;;;;7.22;3.65;;;21.00;99.90;;;;;;4982558;28;20062;-75
2023/06/30 05:48:16;;;;;;;11.45;4.57;;;21.00;99.90;;;;;;4981846;28;20117;-74
2023/06/30 05:50:42;;;;;;;10.45;4.00;;;20.90;99.90;;;;;;4983796;28;20066;-75
2023/06/30 05:53:08;;;;;;;6.18;4.13;;;20.90;99.90;;;;;;4987189;28;20042;-73
2023/06/30 05:55:34;;;;;;;8.40;3.80;;;21.00;99.90;;;;;;4985031;28;20144;-74
2023/06/30 05:57:59;;;;;;;7.25;4.25;;;21.00;99.90;;;;;;4982662;28;20110;-74
2023/06/30 06:00:27;;;;;;;6.85;3.65;;;21.10;99.90;;;;;;4979936;28;20121;-74
2023/06/30 06:02:53;;;;;;;5.68;3.88;;;21.20;99.90;;;;;;4980032;28;20034;-75
2023/06/30 06:05:19;;;;;;;7.22;4.45;;;21.00;99.90;;;;;;4980653;28;20026;-74
2023/06/30 06:07:44;;;;;;;7.30;4.78;;;21.00;99.90;;;;;;4980664;28;20061;-74
2023/06/30 06:10:10;;;;;;;9.55;5.10;;;20.90;99.90;;;;;;4979542;28;20035;-74
2023/06/30 06:12:39;;;;;;;6.50;4.30;;;20.80;99.90;;;;;;4978601;28;20037;-74
2023/06/30 06:15:06;;;;;;;9.45;4.55;;;20.70;99.90;;;;;;4978117;28;20026;-74
2023/06/30 06:17:32;;;;;;;7.55;4.50;;;20.90;99.90;;;;;;4977023;28;20057;-74
2023/06/30 06:19:58;;;;;;;8.77;5.07;;;20.90;99.90;;;;;;4979529;28;20626;-75
2023/06/30 06:22:24;;;;;;;10.38;3.83;;;21.30;99.90;;;;;;4974628;28;20034;-74
2023/06/30 06:24:49;;;;;;;9.07;3.97;;;21.40;99.90;;;;;;4978572;28;20512;-74
2023/06/30 06:27:15;;;;;;;8.55;3.97;;;21.50;99.90;;;;;;4980502;28;20050;-74
2023/06/30 06:29:41;;;;;;;8.05;4.72;;;21.60;99.90;;;;;;4976145;28;20038;-72
2023/06/30 06:32:07;;;;;;;7.45;3.78;;;21.60;99.90;;;;;;4974241;28;20088;-75
2023/06/30 06:34:33;;;;;;;6.28;4.15;;;21.90;99.90;;;;;;4975793;28;20170;-75
2023/06/30 06:37:00;;;;;;;6.72;4.13;;;22.00;99.90;;;;;;4981527;28;20030;-75
2023/06/30 06:39:26;;;;;;;8.73;3.83;;;22.10;99.90;;;;;;4983146;28;20776;-74
2023/06/30 06:41:51;;;;;;;9.45;4.05;;;22.10;99.90;;;;;;4978937;28;20038;-74
2023/06/30 06:44:17;;;;;;;12.20;4.13;;;22.00;99.90;;;;;;4978246;28;20436;-75
2023/06/30 06:46:43;;;;;;;12.52;4.65;;;22.20;99.90;;;;;;4977421;28;20476;-74
2023/06/30 06:49:09;;;;;;;9.52;4.22;;;22.20;99.90;;;;;;4980960;28;20027;-73
2023/06/30 06:51:34;;;;;;;9.68;4.05;;;22.00;99.90;;;;;;4981840;28;20038;-73
2023/06/30 06:54:00;;;;;;;8.00;4.78;;;21.90;99.90;;;;;;4984539;28;20062;-73
2023/06/30 06:56:26;;;;;;;8.15;4.18;;;21.80;99.90;;;;;;4980903;28;20436;-73
2023/06/30 06:58:51;;;;;;;7.82;4.00;;;21.80;99.90;;;;;;4978306;28;20634;-73
2023/06/30 07:01:17;;;;;;;8.88;4.32;;;21.90;99.90;;;;;;4977120;28;20101;-73
2023/06/30 07:03:43;;;;;;;6.00;3.35;;;21.90;99.90;;;;;;4979831;28;20117;-74
2023/06/30 07:06:09;;;;;;;8.35;4.07;;;21.90;99.90;;;;;;4979388;28;20512;-73
2023/06/30 07:08:35;;;;;;;7.38;3.80;;;21.90;99.90;;;;;;4979917;28;20038;-74
2023/06/30 07:11:04;;;;;;;6.63;4.25;;;22.00;99.90;;;;;;4981055;28;20043;-75
2023/06/30 07:13:30;;;;;;;8.63;3.72;;;22.10;99.90;;;;;;4982294;28;20042;-75
2023/06/30 07:15:55;;;;;;;10.45;3.85;;;22.30;99.90;;;;;;4971928;28;20045;-74
2023/06/30 07:18:22;;;;;;;4.85;3.13;;;22.90;99.90;;;;;;4980951;28;20141;-75
2023/06/30 07:20:48;;;;;;;5.93;2.95;;;23.20;99.30;;;;;;4980378;28;20108;-73
2023/06/30 07:23:14;;;;;;;5.53;3.22;;;23.20;98.20;;;;;;4980732;28;20085;-73
2023/06/30 07:25:40;;;;;;;5.18;3.40;;;23.40;97.80;;;;;;4980474;28;20031;-76
2023/06/30 07:28:05;;;;;;;5.60;3.20;;;23.50;98.60;;;;;;4979400;28;20054;-74
2023/06/30 07:30:31;;;;;;;8.30;4.10;;;23.40;97.90;;;;;;4979499;28;20500;-74
2023/06/30 07:32:57;;;;;;;7.57;3.70;;;23.20;98.70;;;;;;4981387;28;20034;-73
2023/06/30 07:35:23;;;;;;;6.80;4.55;;;22.90;99.30;;;;;;4985131;28;20030;-74
2023/06/30 07:37:50;;;;;;;11.07;4.68;;;23.00;99.30;;;;;;4979738;28;20401;-74
2023/06/30 07:40:16;;;;;;;8.73;4.70;;;23.60;98.60;;;;;;4980434;28;20453;-75
2023/06/30 07:42:42;;;;;;;7.93;4.15;;;23.90;98.60;;;;;;4980874;28;20034;-74
2023/06/30 07:45:09;;;;;;;10.38;4.13;;;23.70;98.70;;;;;;4981935;28;20030;-74
2023/06/30 07:47:36;;;;;;;8.65;3.80;;;24.20;98.20;;;;;;4980694;28;20030;-74
2023/06/30 07:50:09;;;;;;;6.80;4.22;;;23.60;97.90;;;;;;4981947;28;20651;-73
2023/06/30 07:52:55;;;;;;;9.90;4.13;;;23.30;98.70;;;;;;4981249;28;20027;-73
2023/06/30 07:55:20;;;;;;;9.25;4.40;;;23.20;98.70;;;;;;4981234;28;20699;-73
2023/06/30 07:57:48;;;;;;;7.90;4.53;;;23.30;99.10;;;;;;4981134;28;20100;-73
2023/06/30 08:00:15;;;;;;;7.13;4.00;;;23.40;98.60;;;;;;4982245;28;20026;-75
2023/06/30 08:02:45;;;;;;;7.38;3.58;;;23.50;98.70;;;;;;4985110;28;20042;-75
2023/06/30 08:05:11;;;;;;;10.30;4.28;;;23.40;98.60;;;;;;4984059;28;20080;-75
2023/06/30 08:07:37;;;;;;;7.35;3.70;;;23.30;99.00;;;;;;4982513;28;20042;-73
2023/06/30 08:10:12;;;;;;;7.43;4.40;;;23.30;99.20;;;;;;4980890;28;20049;-74
2023/06/30 08:12:38;;;;;;;5.28;3.88;;;23.20;99.00;;;;;;4984522;28;20514;-73
2023/06/30 08:15:04;;;;;;;6.22;3.80;;;23.20;98.80;;;;;;4987035;28;20030;-73
2023/06/30 08:17:30;;;;;;;6.57;4.35;;;23.20;99.10;;;;;;4988621;28;20035;-73
2023/06/30 08:19:55;;;;;;;6.68;3.90;;;23.50;98.90;;;;;;4985416;28;20038;-73
2023/06/30 08:22:21;;;;;;;6.43;3.95;;;23.50;99.10;;;;;;4984109;28;20040;-73
2023/06/30 08:24:47;;;;;;;8.18;4.10;;;23.60;99.10;;;;;;4987266;28;20696;-73
2023/06/30 08:27:13;;;;;;;7.13;3.45;;;23.60;99.00;;;;;;4986881;28;20089;-73
2023/06/30 08:29:39;;;;;;;5.78;3.55;;;23.70;99.10;;;;;;4988848;28;20093;-73
2023/06/30 08:32:06;;;;;;;8.65;3.90;;;23.70;98.80;;;;;;4989420;28;20035;-73
2023/06/30 08:34:32;;;;;;;7.97;3.13;;;23.80;98.90;;;;;;4985259;28;20034;-75
2023/06/30 08:36:58;;;;;;;6.82;3.72;;;24.10;97.50;;;;;;4986055;28;20041;-73
2023/06/30 08:39:27;;;;;;;6.13;2.95;;;24.10;97.00;;;;;;4983980;28;20026;-73
2023/06/30 08:41:54;;;;;;;5.68;3.22;;;24.10;97.00;;;;;;4981738;28;20484;-73
2023/06/30 08:44:27;;;;;;;5.88;3.22;;;24.20;97.10;;;;;;4987977;28;20384;-73
2023/06/30 08:46:54;;;;;;;;;;;23.90;96.80;;;;;;4989301;28;20038;-73
2023/06/30 08:49:22;;;;;;;7.55;3.40;;;24.50;96.50;;;;;;4990289;28;19916;-73
2023/06/30 08:51:57;;;;;;;6.22;3.45;;;25.00;96.60;;;;;;4991743;28;20050;-73
2023/06/30 08:54:23;;;;;;;9.07;3.05;;;25.20;96.10;;;;;;4990662;28;20109;-73
2023/06/30 08:56:49;;;;;;;5.13;3.22;;;25.30;95.60;;;;;;4990996;28;20030;-75
2023/06/30 08:59:15;;;;;;;23.90;4.25;;;25.40;95.20;;;;;;4989810;28;20046;-74
2023/06/30 09:01:42;;;;;;;6.20;2.97;;;25.60;95.10;;;;;;4982923;28;20264;-73
2023/06/30 09:04:09;;;;;;;6.72;3.50;;;25.60;95.40;;;;;;4986114;28;20036;-73
2023/06/30 09:06:37;;;;;;;7.38;3.80;;;25.60;95.50;;;;;;4989477;28;20038;-73
2023/06/30 09:09:08;;;;;;;8.85;2.55;;;25.50;94.80;;;;;;4990112;28;20045;-72
2023/06/30 09:11:34;;;;;;;9.07;2.55;;;25.80;94.80;;;;;;4990533;28;20038;-73
2023/06/30 09:14:02;;;;;;;6.00;2.60;;;26.20;95.20;;;;;;4982360;28;20042;-72
2023/06/30 09:16:30;;;;;;;7.97;3.30;;;26.40;94.80;;;;;;4984234;28;20113;-73
2023/06/30 09:18:56;;;;;;;7.22;2.95;;;26.20;94.60;;;;;;4979067;28;20141;-73
2023/06/30 09:21:21;;;;;;;5.90;2.78;;;26.00;95.10;;;;;;4980834;28;20694;-74
2023/06/30 09:23:47;;;;;;;7.60;3.72;;;25.90;95.10;;;;;;4979247;28;20031;-72
2023/06/30 09:26:14;;;;;;;7.05;3.10;;;25.80;94.80;;;;;;4989214;28;20038;-73
2023/06/30 09:28:44;;;;;;;6.78;2.88;;;25.80;94.30;;;;;;4988137;28;20413;-72
2023/06/30 09:31:11;;;;;;;7.10;2.90;;;26.00;94.30;;;;;;4988391;28;20034;-73
2023/06/30 09:33:38;;;;;;;8.63;3.15;;;26.40;94.50;;;;;;4989989;28;20026;-72
2023/06/30 09:36:05;;;;;;;5.32;3.00;;;26.70;94.00;;;;;;4989442;28;20507;-73
2023/06/30 09:38:30;;;;;;;7.00;3.22;;;26.80;93.40;;;;;;4989491;28;20109;-74
2023/06/30 09:40:56;;;;;;;7.82;2.58;;;26.40;93.70;;;;;;4989140;28;20137;-74
2023/06/30 09:43:24;;;;;;;7.07;2.58;;;26.80;93.90;;;;;;4986290;28;20036;-74
2023/06/30 09:46:02;;;;;;;5.07;2.53;;;27.00;93.10;;;;;;4988664;28;20034;-73
2023/06/30 09:48:43;;;;;;;9.98;2.67;;;27.00;92.80;;;;;;4988700;28;20085;-74
2023/06/30 09:51:09;;;;;;;3.95;2.00;;;27.30;93.30;;;;;;4988030;28;20037;-73
2023/06/30 09:53:40;;;;;;;5.13;2.55;;;27.80;92.80;;;;;;4984914;28;20121;-74
2023/06/30 09:56:06;;;;;;;5.50;2.53;;;27.60;92.90;;;;;;4980502;28;20030;-73
2023/06/30 09:58:32;;;;;;;5.68;2.60;;;27.70;93.00;;;;;;4983202;28;20026;-73
2023/06/30 10:00:58;;;;;;;7.68;2.70;;;27.90;92.80;;;;;;4982936;28;20034;-73
2023/06/30 10:03:24;;;;;;;5.53;2.63;;;27.40;93.00;;;;;;4982056;28;20028;-72
2023/06/30 10:05:51;;;;;;;8.75;2.72;;;27.80;92.90;;;;;;4977638;28;20035;-74
2023/06/30 10:08:17;;;;;;;5.05;2.30;;;27.70;92.60;;;;;;4978491;28;20069;-73
2023/06/30 10:10:43;;;;;;;8.05;3.00;;;27.70;92.30;;;;;;4984590;28;20074;-73
2023/06/30 10:13:11;;;;;;;5.47;2.58;;;27.70;91.60;;;;;;4983183;28;20472;-74
2023/06/30 10:15:37;;;;;;;5.30;2.65;;;27.80;91.20;;;;;;4991121;28;20092;-73
2023/06/30 10:18:04;;;;;;;5.95;2.33;;;27.90;91.00;;;;;;4988593;28;20033;-74
2023/06/30 10:20:30;;;;;;;5.80;2.25;;;27.70;90.70;;;;;;4988559;28;20508;-73
2023/06/30 10:23:00;;;;;;;9.73;3.15;;;27.70;90.50;;;;;;4988451;28;20022;-73
2023/06/30 10:25:28;;;;;;;6.95;2.70;;;27.70;90.50;;;;;;4987493;28;20030;-73
2023/06/30 10:27:54;;;;;;;6.20;2.17;;;27.60;90.40;;;;;;4985649;28;20070;-72
2023/06/30 10:30:21;;;;;;;4.72;2.45;;;27.60;90.70;;;;;;4985928;28;20096;-73
2023/06/30 10:32:47;;;;;;;5.97;2.67;;;27.60;90.90;;;;;;4986929;28;20048;-73
2023/06/30 10:35:15;;;;;;;5.13;2.58;;;27.30;91.30;;;;;;4987220;28;20221;-73
2023/06/30 10:37:41;;;;;;;5.00;2.00;;;27.20;91.40;;;;;;4985906;28;20480;-73
2023/06/30 10:40:29;;;;;;;4.32;2.30;;;27.20;90.90;;;;;;4986122;28;20092;-73
2023/06/30 10:42:56;;;;;;;4.57;2.03;;;27.40;91.00;;;;;;4985496;28;20523;-73
2023/06/30 10:45:48;;;;;;;4.90;2.10;;;27.50;90.70;;;;;;4987655;28;20080;-73
2023/06/30 10:48:14;;;;;;;6.72;2.30;;;27.50;91.00;;;;;;4988173;28;20026;-73
2023/06/30 10:50:41;;;;;;;7.13;2.17;;;27.20;91.20;;;;;;4987803;28;20504;-73
2023/06/30 10:53:07;;;;;;;6.95;2.67;;;27.50;91.50;;;;;;4985860;28;20085;-73
2023/06/30 10:55:32;;;;;;;4.35;2.25;;;27.70;91.30;;;;;;4984619;28;20030;-73
2023/06/30 10:58:02;;;;;;;6.60;2.90;;;27.50;90.90;;;;;;4982084;28;20116;-73
2023/06/30 11:00:31;;;;;;;6.80;2.40;;;27.50;91.20;;;;;;4986267;28;20023;-74
2023/06/30 11:02:58;;;;;;;4.15;2.53;;;27.80;91.30;;;;;;4990022;28;20030;-74
2023/06/30 11:05:31;;;;;;;8.35;2.42;;;28.10;90.90;;;;;;4987910;28;20350;-74
2023/06/30 11:08:10;;;;;;;4.65;2.67;;;28.10;90.60;;;;;;4986210;28;20448;-74
2023/06/30 11:10:43;;;;;;;6.30;2.53;;;28.10;90.50;;;;;;4975307;28;20085;-73
2023/06/30 11:13:10;;;;;;;6.97;2.42;;;28.10;90.50;;;;;;4988348;28;20026;-74
2023/06/30 11:15:42;;;;;;;8.65;3.72;;;27.80;90.70;;;;;;4987943;28;20030;-73
2023/06/30 11:18:14;;;;;;;6.07;2.53;;;27.80;90.70;;;;;;4987488;28;20069;-73
2023/06/30 11:21:01;;;;;;;8.82;3.00;;;27.40;90.70;;;;;;4988393;28;20028;-74
2023/06/30 11:23:31;;;;;;;4.95;2.42;;;27.50;90.80;;;;;;4987138;28;20031;-75
2023/06/30 11:25:57;;;;;;;4.45;2.65;;;27.40;91.20;;;;;;4987746;28;20040;-74
2023/06/30 11:28:26;;;;;;;5.65;2.20;;;27.50;91.20;;;;;;4986309;28;20053;-73
2023/06/30 11:30:52;;;;;;;5.03;2.33;;;27.60;90.70;;;;;;4986656;28;20081;-75
2023/06/30 11:33:18;;;;;;;7.60;2.60;;;27.40;91.10;;;;;;4982415;28;20148;-75
2023/06/30 11:35:52;;;;;;;4.95;2.38;;;27.50;90.90;;;;;;4983627;28;20560;-75
2023/06/30 11:38:18;;;;;;;7.40;2.30;;;27.70;91.10;;;;;;4984457;28;20104;-74
2023/06/30 11:40:45;;;;;;;7.35;2.70;;;27.70;90.60;;;;;;4980113;28;20526;-74
2023/06/30 11:43:12;;;;;;;5.07;2.45;;;27.60;91.00;;;;;;4980526;28;20058;-75
2023/06/30 11:45:38;;;;;;;6.13;2.85;;;27.50;90.80;;;;;;4981903;28;20034;-74
2023/06/30 11:48:06;;;;;;;4.43;2.47;;;27.30;90.80;;;;;;4984756;28;20550;-76
2023/06/30 11:50:33;;;;;;;4.28;2.28;;;27.30;90.60;;;;;;4981704;28;20100;-75
2023/06/30 11:53:01;;;;;;;7.35;2.35;;;27.20;90.80;;;;;;4985137;28;20056;-75
2023/06/30 11:55:28;;;;;;;5.88;2.10;;;27.20;90.70;;;;;;4987136;28;20045;-75
2023/06/30 11:57:54;;;;;;;6.47;2.45;;;27.20;90.60;;;;;;4985942;28;20534;-75
2023/06/30 12:00:23;;;;;;;5.50;2.28;;;27.10;90.80;;;;;;4984858;28;20034;-76
2023/06/30 12:02:50;;;;;;;5.47;3.00;;;27.00;90.50;;;;;;4986349;28;20034;-75
2023/06/30 12:05:23;;;;;;;4.53;2.63;;;26.90;90.80;;;;;;4988453;28;20023;-76
2023/06/30 12:07:50;;;;;;;8.48;3.20;;;27.00;90.80;;;;;;4977243;28;20068;-76
2023/06/30 12:10:16;;;;;;;7.10;2.60;;;26.90;90.80;;;;;;4987913;28;20035;-76
2023/06/30 12:12:42;;;;;;;5.80;2.58;;;26.80;90.70;;;;;;4985439;28;20038;-76
2023/06/30 12:15:11;;;;;;;6.13;3.15;;;26.70;90.50;;;;;;4985786;28;20030;-75
2023/06/30 12:17:39;;;;;;;4.60;2.72;;;26.50;90.50;;;;;;4983722;28;20053;-75
2023/06/30 12:20:06;;;;;;;5.75;2.45;;;26.40;90.50;;;;;;4984815;28;20488;-74
2023/06/30 12:22:41;;;;;;;4.97;2.20;;;26.40;90.50;;;;;;4987024;28;20041;-75
2023/06/30 12:25:11;;;;;;;10.23;3.17;;;26.10;90.40;;;;;;4986798;28;20041;-74
2023/06/30 12:27:43;;;;;;;5.93;2.65;;;26.00;90.40;;;;;;4987853;28;20528;-75
2023/06/30 12:30:16;;;;;;;6.22;2.47;;;26.10;90.60;;;;;;4988390;28;20030;-75
2023/06/30 12:32:43;;;;;;;11.00;2.57;;;26.10;90.50;;;;;;4987930;28;20109;-76
2023/06/30 12:35:09;;;;;;;4.07;2.33;;;26.00;90.70;;;;;;4993065;28;20034;-75
2023/06/30 12:37:35;;;;;;;8.10;2.67;;;26.00;90.70;;;;;;4992387;28;20546;-75
2023/06/30 12:40:00;;;;;;;5.25;2.33;;;25.90;90.80;;;;;;4982884;28;20023;-74
2023/06/30 12:42:30;;;;;;;4.22;2.65;;;25.90;90.90;;;;;;4981964;28;20353;-76
2023/06/30 12:44:56;;;;;;;3.72;2.20;;;26.10;91.00;;;;;;4979919;28;20035;-75
2023/06/30 12:47:22;;;;;;;5.80;2.38;;;26.10;90.90;;;;;;4976066;28;20489;-75